Time;durP1;ratioP1;P1;durP2;ratioP2;P2;SDS_P1;SDS_P2;PMS_P1;PMS_P2;Temp;Humidity;BMP_temperature;BMP_pressure;BME280_temperature;BME280_humidity;BME280_pressure;Samples;Min_cycle;Max_cycle;Signal;HPM_P1;HPM_P2
2022/07/13 00:02:16;;;;;;;2.00;1.80;;;15.20;88.10;;;;;;5046885;28;20207;-87
2022/07/13 00:04:43;;;;;;;5.38;2.20;;;15.30;86.30;;;;;;5055006;28;20265;-87
2022/07/13 00:07:12;;;;;;;2.35;2.00;;;15.20;87.00;;;;;;5044555;28;20218;-87
2022/07/13 00:09:39;;;;;;;2.33;2.05;;;15.30;87.50;;;;;;5032330;28;20218;-87
2022/07/13 00:12:06;;;;;;;2.50;1.90;;;15.40;86.50;;;;;;5028488;28;20202;-87
2022/07/13 00:14:33;;;;;;;1.65;1.55;;;15.40;86.30;;;;;;5026809;28;20210;-87
2022/07/13 00:17:00;;;;;;;2.22;1.80;;;15.30;85.80;;;;;;5030774;28;20212;-87
2022/07/13 00:19:26;;;;;;;3.65;2.05;;;15.10;87.60;;;;;;5031851;28;20202;-87
2022/07/13 00:21:54;;;;;;;2.88;2.05;;;15.00;89.00;;;;;;5025627;28;20215;-87
2022/07/13 00:24:22;;;;;;;3.58;2.13;;;15.10;88.40;;;;;;5015784;28;20286;-87
2022/07/13 00:26:49;;;;;;;1.83;1.73;;;15.20;88.30;;;;;;5026299;28;20210;-87
2022/07/13 00:29:16;;;;;;;2.72;1.80;;;15.20;88.10;;;;;;5029120;28;20693;-87
2022/07/13 00:31:43;;;;;;;2.17;2.00;;;15.30;87.40;;;;;;5031319;28;20245;-87
2022/07/13 00:34:10;;;;;;;2.00;1.80;;;15.40;86.70;;;;;;5027303;28;20202;-87
2022/07/13 00:36:37;;;;;;;2.65;1.90;;;15.20;86.60;;;;;;5024703;28;20204;-87
2022/07/13 00:39:10;;;;;;;2.08;1.88;;;15.00;87.70;;;;;;5017323;28;20276;-87
2022/07/13 00:41:44;;;;;;;2.65;1.70;;;14.70;90.10;;;;;;5023426;28;20207;-87
2022/07/13 00:44:12;;;;;;;5.10;2.00;;;14.50;90.50;;;;;;5026143;28;20211;-87
2022/07/13 00:46:40;;;;;;;1.90;1.80;;;14.40;91.30;;;;;;5025669;28;20658;-87
2022/07/13 00:49:07;;;;;;;3.40;1.92;;;14.40;91.30;;;;;;5021576;28;20222;-87
2022/07/13 00:51:34;;;;;;;2.45;1.83;;;14.30;91.30;;;;;;5021796;28;20206;-87
2022/07/13 00:54:02;;;;;;;1.90;1.70;;;14.20;91.60;;;;;;5019476;28;20230;-87
2022/07/13 00:56:29;;;;;;;1.95;1.80;;;14.20;91.90;;;;;;5027347;28;20556;-87
2022/07/13 00:58:58;;;;;;;2.63;1.95;;;14.20;92.20;;;;;;5025471;28;20199;-87
2022/07/13 01:01:25;;;;;;;2.35;1.73;;;14.40;92.20;;;;;;5031405;28;20587;-87
2022/07/13 01:03:52;;;;;;;2.10;1.80;;;14.60;91.40;;;;;;5028075;28;20237;-87
2022/07/13 01:06:19;;;;;;;5.72;2.05;;;14.70;90.90;;;;;;5027964;28;20199;-87
2022/07/13 01:08:46;;;;;;;3.47;1.77;;;14.50;90.90;;;;;;5021187;28;20223;-87
2022/07/13 01:11:13;;;;;;;4.20;1.70;;;14.40;91.30;;;;;;5025729;28;20708;-87
2022/07/13 01:13:40;;;;;;;1.90;1.80;;;14.30;91.30;;;;;;5020329;28;20203;-87
2022/07/13 01:16:09;;;;;;;2.30;2.00;;;14.20;91.30;;;;;;5017483;28;20638;-87
2022/07/13 01:18:37;;;;;;;3.03;2.05;;;14.20;91.90;;;;;;5027053;28;20666;-87
2022/07/13 01:21:05;;;;;;;3.15;2.30;;;14.30;92.10;;;;;;5030218;28;20210;-87
2022/07/13 01:23:36;;;;;;;3.85;2.30;;;14.50;91.30;;;;;;5016145;28;20200;-86
2022/07/13 01:26:07;;;;;;;2.85;2.53;;;14.60;91.40;;;;;;5020407;28;20202;-87
2022/07/13 01:28:33;;;;;;;3.92;2.45;;;14.60;90.80;;;;;;5024773;28;20231;-87
2022/07/13 01:31:00;;;;;;;2.55;1.98;;;14.40;91.30;;;;;;5025369;28;20203;-87
2022/07/13 01:33:27;;;;;;;2.45;2.00;;;14.20;91.40;;;;;;5019758;28;20228;-87
2022/07/13 01:35:55;;;;;;;2.17;1.90;;;14.10;92.00;;;;;;5026706;28;20203;-87
2022/07/13 01:38:22;;;;;;;1.98;1.65;;;14.20;92.30;;;;;;5028247;28;20207;-87
2022/07/13 01:40:51;;;;;;;2.33;1.90;;;14.40;91.60;;;;;;5028294;28;20229;-87
2022/07/13 01:43:18;;;;;;;1.60;1.50;;;14.50;91.30;;;;;;5025395;28;20569;-87
2022/07/13 01:45:45;;;;;;;2.42;1.55;;;14.40;91.30;;;;;;5025035;28;20198;-87
2022/07/13 01:48:12;;;;;;;1.77;1.67;;;14.30;91.30;;;;;;5015722;28;20192;-87
2022/07/13 01:50:39;;;;;;;2.72;1.90;;;14.20;91.30;;;;;;5034431;28;20195;-87
2022/07/13 01:53:05;;;;;;;2.78;1.88;;;14.10;91.80;;;;;;5029831;28;20198;-87
2022/07/13 01:55:32;;;;;;;2.40;2.00;;;14.00;92.10;;;;;;5031607;28;20204;-86
2022/07/13 01:58:01;;;;;;;2.10;1.90;;;13.90;92.40;;;;;;5031813;28;20658;-87
2022/07/13 02:00:29;;;;;;;2.05;1.70;;;14.00;92.70;;;;;;5031700;28;20209;-87
2022/07/13 02:02:55;;;;;;;1.80;1.67;;;14.30;92.10;;;;;;5032092;28;20206;-87
2022/07/13 02:05:25;;;;;;;1.83;1.73;;;14.40;91.60;;;;;;5022921;28;20202;-87
2022/07/13 02:07:51;;;;;;;1.80;1.70;;;14.50;91.30;;;;;;5032354;28;20221;-86
2022/07/13 02:10:35;;;;;;;5.15;2.00;;;14.30;91.30;;;;;;5032152;28;20234;-87
2022/07/13 02:13:04;;;;;;;2.85;2.10;;;14.10;91.40;;;;;;5024404;28;20199;-86
2022/07/13 02:15:31;;;;;;;3.95;1.95;;;14.00;92.10;;;;;;5032889;28;20194;-87
2022/07/13 02:17:58;;;;;;;7.07;3.83;;;13.80;92.90;;;;;;5029203;28;20195;-86
2022/07/13 02:20:25;;;;;;;7.95;3.53;;;13.90;93.30;;;;;;5023777;28;20204;-86
2022/07/13 02:22:52;;;;;;;2.80;1.90;;;14.00;93.30;;;;;;5032704;28;20195;-87
2022/07/13 02:25:22;;;;;;;2.70;1.90;;;14.20;92.60;;;;;;5036570;28;20249;-86
2022/07/13 02:27:49;;;;;;;2.25;1.75;;;14.30;92.20;;;;;;5034448;28;20209;-86
2022/07/13 02:30:18;;;;;;;1.70;1.60;;;14.40;91.80;;;;;;5038267;28;20574;-87
2022/07/13 02:32:47;;;;;;;2.75;1.85;;;14.30;91.30;;;;;;5027201;28;20220;-87
2022/07/13 02:35:14;;;;;;;2.80;1.65;;;14.10;91.60;;;;;;5031360;28;20206;-86
2022/07/13 02:37:53;;;;;;;1.80;1.70;;;13.90;92.30;;;;;;5029671;28;20194;-87
2022/07/13 02:40:34;;;;;;;2.10;1.70;;;14.00;92.60;;;;;;5024216;28;20194;-86
2022/07/13 02:43:01;;;;;;;1.63;1.52;;;14.10;92.60;;;;;;5031143;28;20194;-86
2022/07/13 02:45:36;;;;;;;2.15;1.65;;;14.00;92.60;;;;;;5030771;28;20199;-86
2022/07/13 02:48:03;;;;;;;3.30;1.95;;;14.10;92.70;;;;;;5033793;28;20205;-87
2022/07/13 02:50:30;;;;;;;3.15;1.67;;;14.20;92.10;;;;;;5033097;28;20223;-86
2022/07/13 02:52:57;;;;;;;3.10;1.77;;;14.30;92.00;;;;;;5032334;28;20215;-87
2022/07/13 02:55:28;;;;;;;1.52;1.42;;;14.30;91.60;;;;;;5026676;28;20211;-87
2022/07/13 02:57:55;;;;;;;1.90;1.70;;;14.40;91.60;;;;;;5023893;28;20653;-87
2022/07/13 03:00:42;;;;;;;1.70;1.60;;;14.40;91.30;;;;;;5030998;28;20206;-87
2022/07/13 03:03:08;;;;;;;2.10;1.83;;;14.30;91.30;;;;;;5026301;28;20198;-87
2022/07/13 03:05:35;;;;;;;3.55;1.90;;;14.20;91.70;;;;;;5027098;28;20217;-87
2022/07/13 03:08:02;;;;;;;2.22;1.70;;;14.20;92.00;;;;;;5028127;28;20688;-87
2022/07/13 03:10:29;;;;;;;1.90;1.60;;;14.20;91.70;;;;;;5026805;28;20223;-87
2022/07/13 03:12:56;;;;;;;2.58;1.90;;;14.30;91.30;;;;;;5025721;28;20202;-86
2022/07/13 03:15:23;;;;;;;1.85;1.75;;;14.30;91.30;;;;;;5033351;28;20290;-86
2022/07/13 03:17:51;;;;;;;2.17;1.52;;;14.40;91.30;;;;;;5031143;28;20217;-86
2022/07/13 03:20:22;;;;;;;4.38;1.50;;;14.30;91.30;;;;;;5032021;28;20203;-86
2022/07/13 03:22:50;;;;;;;2.33;1.80;;;14.20;91.30;;;;;;5036091;28;20207;-86
2022/07/13 03:25:17;;;;;;;1.63;1.50;;;13.90;91.40;;;;;;5038315;28;20661;-86
2022/07/13 03:27:44;;;;;;;1.70;1.60;;;13.70;92.40;;;;;;5039195;28;20191;-86
2022/07/13 03:30:22;;;;;;;3.30;1.70;;;13.60;92.70;;;;;;5039080;28;20210;-86
2022/07/13 03:32:50;;;;;;;2.10;1.80;;;13.60;93.50;;;;;;5036332;28;20214;-86
2022/07/13 03:35:22;;;;;;;3.80;1.77;;;13.80;93.20;;;;;;5034078;28;20201;-86
2022/07/13 03:37:49;;;;;;;2.88;1.70;;;14.00;92.60;;;;;;5024659;28;20256;-86
2022/07/13 03:40:16;;;;;;;2.20;1.45;;;14.10;92.20;;;;;;5034335;28;20203;-86
2022/07/13 03:42:43;;;;;;;2.78;1.67;;;14.00;92.40;;;;;;5031300;28;20559;-86
2022/07/13 03:45:10;;;;;;;1.85;1.75;;;13.90;92.20;;;;;;5037927;28;20208;-86
2022/07/13 03:47:37;;;;;;;4.40;1.70;;;13.70;92.90;;;;;;5038666;28;20195;-86
2022/07/13 03:50:06;;;;;;;2.03;1.83;;;13.70;93.10;;;;;;5033435;28;20231;-86
2022/07/13 03:52:33;;;;;;;2.15;1.73;;;13.50;93.30;;;;;;5032840;28;20575;-87
2022/07/13 03:55:00;;;;;;;2.47;1.77;;;13.50;93.70;;;;;;5027881;28;20218;-86
2022/07/13 03:57:27;;;;;;;1.95;1.80;;;13.60;93.70;;;;;;5028412;28;20198;-86
2022/07/13 03:59:54;;;;;;;3.78;1.80;;;13.80;93.00;;;;;;5028226;28;20207;-86
2022/07/13 04:02:22;;;;;;;1.98;1.83;;;13.90;92.60;;;;;;5032423;28;20198;-86
2022/07/13 04:04:49;;;;;;;2.95;1.70;;;13.90;92.70;;;;;;5027860;28;20202;-86
2022/07/13 04:07:17;;;;;;;3.38;1.70;;;14.00;92.40;;;;;;5036151;28;20202;-86
2022/07/13 04:09:46;;;;;;;2.20;2.00;;;14.00;92.10;;;;;;5026501;28;20215;-86
2022/07/13 04:12:13;;;;;;;3.92;1.77;;;14.20;92.00;;;;;;5026375;28;20206;-86
2022/07/13 04:14:40;;;;;;;2.42;1.70;;;14.30;91.70;;;;;;5039396;28;20262;-86
2022/07/13 04:17:07;;;;;;;1.83;1.63;;;14.40;91.30;;;;;;5044514;28;20277;-86
2022/07/13 04:19:33;;;;;;;4.90;1.60;;;14.40;91.30;;;;;;5048371;28;20210;-86
2022/07/13 04:22:04;;;;;;;2.30;1.55;;;14.60;91.30;;;;;;5051622;28;20194;-87
2022/07/13 04:24:32;;;;;;;2.08;1.75;;;14.60;91.30;;;;;;5052182;28;20301;-87
2022/07/13 04:26:59;;;;;;;3.47;1.90;;;14.60;91.30;;;;;;5027834;28;20214;-87
2022/07/13 04:29:26;;;;;;;2.38;1.92;;;14.70;91.20;;;;;;5014775;28;20273;-87
2022/07/13 04:31:53;;;;;;;3.50;1.60;;;14.70;90.80;;;;;;5018690;28;20387;-87
2022/07/13 04:34:20;;;;;;;4.25;1.80;;;14.80;90.80;;;;;;5029749;28;20198;-87
2022/07/13 04:36:53;;;;;;;2.60;1.40;;;14.80;90.40;;;;;;5022533;28;20202;-86
2022/07/13 04:39:19;;;;;;;1.83;1.70;;;14.70;90.30;;;;;;5033109;28;20213;-87
2022/07/13 04:41:54;;;;;;;5.57;1.70;;;14.80;90.40;;;;;;5032378;28;20212;-86
2022/07/13 04:44:22;;;;;;;1.77;1.67;;;14.90;90.50;;;;;;5024114;28;20194;-87
2022/07/13 04:46:49;;;;;;;1.65;1.55;;;15.00;90.20;;;;;;5028045;28;20568;-87
2022/07/13 04:49:19;;;;;;;3.35;1.80;;;15.00;90.10;;;;;;5018109;28;20225;-87
2022/07/13 04:51:47;;;;;;;1.67;1.55;;;15.10;90.00;;;;;;5022399;28;20198;-87
2022/07/13 04:54:16;;;;;;;4.72;1.70;;;15.20;90.00;;;;;;5022222;28;20254;-87
2022/07/13 04:56:47;;;;;;;2.13;1.67;;;15.20;89.70;;;;;;5023178;28;20690;-88
2022/07/13 04:59:16;;;;;;;3.72;1.60;;;15.20;89.30;;;;;;5014123;28;20199;-88
2022/07/13 05:01:43;;;;;;;4.55;1.67;;;15.30;89.70;;;;;;5027451;28;20614;-88
2022/07/13 05:04:10;;;;;;;2.45;1.60;;;15.30;90.00;;;;;;5024319;28;20206;-89
2022/07/13 05:06:37;;;;;;;1.55;1.42;;;15.40;89.30;;;;;;5024870;28;20215;-90
2022/07/13 05:09:05;;;;;;;1.63;1.52;;;15.70;88.70;;;;;;5026779;28;20196;-87
2022/07/13 05:11:40;;;;;;;1.70;1.60;;;16.50;83.30;;;;;;5028985;28;20199;-87
2022/07/13 05:14:24;;;;;;;1.40;1.30;;;17.00;78.70;;;;;;5033604;28;20563;-86
2022/07/13 05:16:51;;;;;;;2.78;1.60;;;17.20;77.70;;;;;;5032851;28;20570;-87
2022/07/13 05:19:17;;;;;;;1.65;1.55;;;17.40;75.30;;;;;;5031651;28;20194;-86
2022/07/13 05:21:44;;;;;;;1.52;1.42;;;17.60;72.10;;;;;;5031715;28;20199;-87
2022/07/13 05:24:11;;;;;;;3.00;1.73;;;17.50;70.90;;;;;;5031478;28;20195;-87
2022/07/13 05:26:38;;;;;;;2.13;1.50;;;17.40;72.30;;;;;;5038474;28;20228;-86
2022/07/13 05:29:12;;;;;;;2.90;1.40;;;17.30;74.40;;;;;;5035557;28;20221;-86
2022/07/13 05:31:40;;;;;;;1.40;1.30;;;17.20;74.80;;;;;;5026465;28;20674;-86
2022/07/13 05:34:07;;;;;;;1.50;1.40;;;17.30;76.10;;;;;;5025673;28;20269;-85
2022/07/13 05:36:34;;;;;;;2.85;1.50;;;17.40;75.30;;;;;;5026711;28;20203;-85
2022/07/13 05:39:01;;;;;;;1.30;1.20;;;17.50;74.90;;;;;;5036781;28;20202;-85
2022/07/13 05:41:28;;;;;;;1.75;1.63;;;17.50;74.70;;;;;;5032267;28;20197;-85
2022/07/13 05:43:54;;;;;;;1.63;1.52;;;17.60;72.60;;;;;;5021956;28;20199;-85
2022/07/13 05:46:21;;;;;;;2.28;1.45;;;17.70;71.50;;;;;;5029806;28;20211;-85
2022/07/13 05:48:49;;;;;;;2.53;1.60;;;17.90;71.40;;;;;;5031463;28;20200;-85
2022/07/13 05:51:16;;;;;;;1.92;1.65;;;18.20;68.70;;;;;;5033577;28;20227;-85
2022/07/13 05:53:43;;;;;;;1.80;1.50;;;18.50;64.60;;;;;;5034590;28;20738;-85
2022/07/13 05:56:10;;;;;;;2.50;1.50;;;18.90;64.00;;;;;;5035729;28;20625;-85
2022/07/13 05:58:37;;;;;;;2.05;1.50;;;19.80;55.70;;;;;;5029391;28;20556;-85
2022/07/13 06:01:04;;;;;;;3.30;1.50;;;20.70;51.00;;;;;;5034269;28;20203;-86
2022/07/13 06:03:34;;;;;;;2.53;1.40;;;21.30;44.20;;;;;;5033608;28;20213;-85
2022/07/13 06:06:03;;;;;;;1.38;1.27;;;21.50;39.60;;;;;;5019977;28;20207;-85
2022/07/13 06:08:30;;;;;;;3.50;1.48;;;21.20;40.00;;;;;;5024520;28;20683;-86
2022/07/13 06:10:57;;;;;;;1.90;1.33;;;20.70;41.70;;;;;;5027977;28;20227;-85
2022/07/13 06:13:24;;;;;;;2.30;1.60;;;20.30;44.50;;;;;;5029985;28;20545;-85
2022/07/13 06:15:51;;;;;;;3.45;1.55;;;20.00;48.80;;;;;;5026533;28;20207;-85
2022/07/13 06:18:18;;;;;;;3.25;1.55;;;19.70;51.40;;;;;;5027204;28;20276;-87
2022/07/13 06:20:45;;;;;;;3.10;1.65;;;19.60;53.30;;;;;;5018191;28;20203;-87
2022/07/13 06:23:15;;;;;;;2.65;1.58;;;19.40;55.30;;;;;;5024236;28;20654;-85
2022/07/13 06:25:47;;;;;;;3.50;1.73;;;19.40;55.30;;;;;;5025154;28;20198;-88
2022/07/13 06:28:14;;;;;;;3.05;1.40;;;19.40;55.30;;;;;;5024683;28;20195;-88
2022/07/13 06:30:42;;;;;;;4.85;1.85;;;19.40;55.30;;;;;;5030993;28;20252;-87
2022/07/13 06:33:08;;;;;;;4.72;1.60;;;19.40;55.40;;;;;;5025860;28;20218;-88
2022/07/13 06:35:35;;;;;;;2.53;2.17;;;19.40;55.30;;;;;;5020822;28;20196;-90
2022/07/13 06:38:03;;;;;;;4.32;1.70;;;19.40;55.30;;;;;;5020980;28;20561;-88
2022/07/13 06:40:31;;;;;;;3.42;1.50;;;19.60;56.70;;;;;;5030634;28;20198;-87
2022/07/13 06:42:58;;;;;;;1.88;1.60;;;19.60;53.30;;;;;;5026931;28;20200;-87
2022/07/13 06:45:40;;;;;;;2.72;1.80;;;19.70;52.90;;;;;;5030603;28;20332;-87
2022/07/13 06:48:10;;;;;;;2.70;1.60;;;19.80;53.20;;;;;;5027210;28;20199;-87
2022/07/13 06:50:37;;;;;;;1.60;1.50;;;19.80;54.00;;;;;;5024939;28;20214;-86
2022/07/13 06:53:04;;;;;;;2.95;1.40;;;20.00;52.30;;;;;;5021188;28;20199;-86
2022/07/13 06:55:33;;;;;;;5.90;2.05;;;20.00;51.40;;;;;;5026940;28;20205;-86
2022/07/13 06:58:16;;;;;;;2.28;2.05;;;20.10;51.90;;;;;;5034828;28;20294;-86
2022/07/13 07:00:43;;;;;;;4.75;1.58;;;20.30;52.30;;;;;;5019820;28;20198;-86
2022/07/13 07:03:10;;;;;;;3.00;1.60;;;20.30;51.60;;;;;;5029346;28;20290;-86
2022/07/13 07:05:37;;;;;;;2.92;1.60;;;20.50;51.60;;;;;;5021799;28;20209;-86
2022/07/13 07:08:04;;;;;;;1.42;1.33;;;20.50;47.70;;;;;;5031360;28;20225;-86
2022/07/13 07:10:33;;;;;;;2.88;1.40;;;20.60;44.00;;;;;;5026224;28;20747;-82
2022/07/13 07:13:04;;;;;;;3.22;1.30;;;20.80;44.50;;;;;;5039155;28;20206;-82
2022/07/13 07:15:41;;;;;;;2.13;1.30;;;20.90;42.20;;;;;;5035028;28;20203;-82
2022/07/13 07:18:07;;;;;;;1.88;1.75;;;21.00;38.90;;;;;;5024621;28;20242;-85
2022/07/13 07:20:34;;;;;;;2.17;1.40;;;21.10;39.30;;;;;;5034569;28;20208;-85
2022/07/13 07:23:01;;;;;;;2.17;1.40;;;21.20;37.90;;;;;;5029646;28;20566;-85
2022/07/13 07:25:28;;;;;;;2.30;1.50;;;21.40;38.00;;;;;;5024339;28;20206;-85
2022/07/13 07:27:57;;;;;;;2.88;1.40;;;21.50;33.40;;;;;;5029707;28;20206;-86
2022/07/13 07:30:23;;;;;;;2.03;1.30;;;21.60;33.40;;;;;;5026107;28;20226;-87
2022/07/13 07:32:52;;;;;;;1.48;1.17;;;21.80;33.60;;;;;;5033839;28;20225;-83
2022/07/13 07:35:19;;;;;;;2.95;1.40;;;21.90;33.60;;;;;;5038776;28;20195;-83
2022/07/13 07:37:46;;;;;;;1.58;1.30;;;22.10;29.90;;;;;;5028543;28;20266;-83
2022/07/13 07:40:13;;;;;;;1.67;1.58;;;22.40;29.00;;;;;;5029886;28;20206;-83
2022/07/13 07:42:40;;;;;;;1.48;1.20;;;22.50;29.10;;;;;;5034612;28;20194;-83
2022/07/13 07:45:09;;;;;;;1.55;1.23;;;22.50;25.70;;;;;;5033550;28;20207;-83
2022/07/13 07:47:41;;;;;;;1.75;1.30;;;22.60;25.00;;;;;;5031130;28;20202;-82
2022/07/13 07:50:17;;;;;;;5.72;1.50;;;22.70;24.90;;;;;;5027259;28;20198;-83
2022/07/13 07:52:43;;;;;;;1.38;1.27;;;22.70;24.20;;;;;;5038932;28;20200;-83
2022/07/13 07:55:10;;;;;;;3.17;1.20;;;22.70;23.50;;;;;;5032302;28;20199;-86
2022/07/13 07:57:45;;;;;;;1.15;1.10;;;22.70;23.50;;;;;;5028664;28;20214;-86
2022/07/13 08:00:18;;;;;;;1.45;1.35;;;22.70;25.10;;;;;;5027022;28;20201;-85
2022/07/13 08:02:45;;;;;;;2.20;1.42;;;22.80;25.20;;;;;;5025037;28;20202;-86
2022/07/13 08:05:18;;;;;;;5.95;1.40;;;23.10;24.10;;;;;;5029672;28;20401;-83
2022/07/13 08:07:46;;;;;;;1.65;1.30;;;23.20;24.50;;;;;;5037039;28;20203;-84
2022/07/13 08:10:14;;;;;;;7.70;1.85;;;23.20;23.30;;;;;;5032625;28;20264;-83
2022/07/13 08:13:03;;;;;;;2.53;1.20;;;23.40;23.10;;;;;;5028023;28;20202;-83
2022/07/13 08:15:36;;;;;;;2.08;1.17;;;23.50;20.70;;;;;;5038643;28;20217;-84
2022/07/13 08:18:04;;;;;;;3.63;1.48;;;23.70;20.10;;;;;;5028781;28;20664;-84
2022/07/13 08:20:35;;;;;;;3.30;1.40;;;24.40;19.00;;;;;;5028256;28;20202;-83
2022/07/13 08:23:50;;;;;;;5.82;1.23;;;24.90;19.40;;;;;;5028341;28;20206;-83
2022/07/13 08:25:53;;;;;;;1.90;1.20;;;25.70;17.90;;;;;;5033658;28;20199;-83
2022/07/13 08:28:20;;;;;;;1.50;1.40;;;26.20;17.10;;;;;;5033873;28;20225;-83
2022/07/13 08:30:48;;;;;;;3.13;1.40;;;27.00;15.10;;;;;;5029338;28;20234;-82
2022/07/13 08:38:34;;;;;;;3.60;1.50;;;27.80;15.50;;;;;;5041010;28;20218;-83
2022/07/13 08:39:08;;;;;;;2.28;1.52;;;29.40;12.60;;;;;;5045642;28;20221;-83
2022/07/13 08:41:35;;;;;;;1.60;1.50;;;29.80;10.60;;;;;;5048839;28;20204;-82
2022/07/13 08:44:02;;;;;;;1.98;1.50;;;29.80;11.30;;;;;;5052343;28;20190;-83
2022/07/13 08:46:30;;;;;;;3.42;1.40;;;29.60;11.70;;;;;;5040935;28;20288;-82
2022/07/13 08:48:58;;;;;;;2.65;1.40;;;29.10;11.00;;;;;;5029591;28;20676;-83
2022/07/13 08:51:25;;;;;;;1.95;1.38;;;28.90;11.70;;;;;;5037229;28;20236;-82
2022/07/13 08:53:54;;;;;;;2.60;1.30;;;29.00;10.80;;;;;;5023727;28;20279;-83
2022/07/13 08:56:21;;;;;;;3.63;1.67;;;28.70;10.30;;;;;;5019428;28;20202;-82
2022/07/13 08:58:48;;;;;;;1.50;1.40;;;28.00;12.30;;;;;;5018123;28;20202;-82
2022/07/13 09:01:23;;;;;;;1.77;1.30;;;28.00;11.90;;;;;;5028792;28;20202;-81
2022/07/13 09:03:51;;;;;;;1.40;1.30;;;27.70;11.00;;;;;;5033514;28;20193;-83
2022/07/13 09:06:43;;;;;;;1.50;1.40;;;28.00;11.80;;;;;;5028969;28;20549;-83
2022/07/13 09:09:25;;;;;;;1.70;1.23;;;28.60;11.10;;;;;;5034187;28;20198;-82
2022/07/13 09:11:53;;;;;;;1.38;1.27;;;29.00;10.50;;;;;;5030267;28;20217;-85
2022/07/13 09:14:29;;;;;;;2.75;1.52;;;29.40;9.70;;;;;;5033443;28;20657;-85
2022/07/13 09:16:56;;;;;;;1.35;1.25;;;29.40;7.90;;;;;;5032036;28;20213;-84
2022/07/13 09:19:26;;;;;;;3.13;1.20;;;29.00;6.90;;;;;;5027876;28;20673;-84
2022/07/13 09:22:13;;;;;;;4.15;1.30;;;29.40;8.20;;;;;;5030367;28;20202;-85
2022/07/13 09:24:44;;;;;;;2.15;1.45;;;29.50;8.40;;;;;;5032659;28;20198;-84
2022/07/13 09:27:11;;;;;;;3.78;1.50;;;30.50;11.00;;;;;;5027971;28;20732;-86
2022/07/13 09:29:38;;;;;;;1.70;1.60;;;31.90;7.10;;;;;;5034885;28;20213;-86
2022/07/13 09:32:08;;;;;;;1.92;1.60;;;32.10;5.40;;;;;;5034916;28;20230;-88
2022/07/13 09:34:50;;;;;;;1.90;1.77;;;31.60;6.80;;;;;;5033782;28;20210;-88
2022/07/13 09:37:31;;;;;;;3.78;1.90;;;31.20;5.50;;;;;;5031107;28;20226;-85
2022/07/13 09:40:05;;;;;;;1.70;1.60;;;31.00;7.50;;;;;;5020898;28;20674;-85
2022/07/13 09:42:36;;;;;;;1.52;1.42;;;31.00;7.60;;;;;;5028743;28;20210;-85
2022/07/13 09:47:52;;;;;;;2.13;1.70;;;31.00;7.50;;;;;;5035740;28;20200;-85
2022/07/13 09:50:26;;;;;;;2.45;1.85;;;31.40;7.60;;;;;;5024765;28;20281;-87
2022/07/13 09:52:53;;;;;;;2.80;1.85;;;32.10;8.00;;;;;;5028232;28;20226;-85
2022/07/13 09:55:22;;;;;;;3.42;1.73;;;32.80;7.60;;;;;;5029160;28;20220;-85
2022/07/13 09:57:57;;;;;;;2.65;2.00;;;33.60;4.10;;;;;;5027507;28;20293;-85
2022/07/13 10:00:24;;;;;;;2.40;2.10;;;33.50;4.40;;;;;;5032246;28;20567;-85
2022/07/13 10:02:51;;;;;;;4.40;2.05;;;33.00;4.70;;;;;;5033110;28;20620;-84
2022/07/13 10:05:22;;;;;;;2.03;1.50;;;32.80;4.90;;;;;;5040286;28;20753;-84
2022/07/13 10:07:50;;;;;;;1.98;1.80;;;32.60;4.40;;;;;;5032714;28;20222;-84
2022/07/13 10:10:23;;;;;;;2.50;1.50;;;32.10;5.90;;;;;;5034007;28;20219;-85
2022/07/13 10:12:50;;;;;;;2.90;1.70;;;31.30;5.10;;;;;;5037896;28;20230;-83
2022/07/13 10:15:17;;;;;;;4.40;1.65;;;30.90;5.80;;;;;;5030337;28;20206;-84
2022/07/13 10:17:57;;;;;;;3.85;1.98;;;31.40;6.80;;;;;;5028728;28;20194;-84
2022/07/13 10:20:42;;;;;;;1.77;1.50;;;31.20;7.30;;;;;;5031791;28;20297;-85
2022/07/13 10:23:23;;;;;;;3.33;1.80;;;30.90;7.20;;;;;;5034518;28;20667;-86
2022/07/13 10:25:51;;;;;;;4.07;1.95;;;31.10;8.00;;;;;;5034748;28;20240;-86
2022/07/13 10:28:27;;;;;;;4.18;1.83;;;31.40;8.70;;;;;;5032188;28;20210;-85
2022/07/13 10:30:54;;;;;;;2.42;1.70;;;30.80;7.10;;;;;;5031889;28;20202;-84
2022/07/13 10:33:36;;;;;;;2.25;1.52;;;30.70;7.40;;;;;;5023469;28;20466;-85
2022/07/13 10:36:08;;;;;;;2.58;1.55;;;30.80;9.70;;;;;;5023619;28;20206;-85
2022/07/13 10:38:48;;;;;;;2.00;1.85;;;30.90;7.40;;;;;;5024238;28;20202;-86
2022/07/13 10:41:23;;;;;;;3.95;1.70;;;30.70;9.30;;;;;;5023219;28;20194;-84
2022/07/13 10:43:56;;;;;;;3.15;1.70;;;30.80;7.50;;;;;;5031563;28;20212;-85
2022/07/13 10:46:50;;;;;;;3.05;2.00;;;31.50;7.50;;;;;;5033929;28;20208;-84
2022/07/13 10:49:37;;;;;;;2.28;1.83;;;32.80;5.20;;;;;;5018343;28;20206;-84
2022/07/13 10:55:33;;;;;;;2.63;1.95;;;32.60;6.10;;;;;;5029158;28;20203;-84
2022/07/13 10:58:23;;;;;;;1.95;1.80;;;32.00;8.00;;;;;;5031514;28;20661;-83
2022/07/13 11:00:50;;;;;;;3.80;1.70;;;31.50;6.20;;;;;;5016703;28;20203;-85
2022/07/13 11:03:31;;;;;;;4.38;1.80;;;30.90;7.50;;;;;;5029697;28;20671;-83
2022/07/13 11:06:05;;;;;;;1.70;1.60;;;31.00;6.90;;;;;;5019513;28;20206;-84
2022/07/13 11:08:36;;;;;;;5.10;1.90;;;31.30;7.20;;;;;;5030747;28;20194;-84
2022/07/13 11:11:15;;;;;;;4.22;1.73;;;31.00;9.90;;;;;;5029965;28;20203;-84
2022/07/13 11:13:45;;;;;;;3.50;2.03;;;31.30;7.60;;;;;;5026680;28;20202;-85
2022/07/13 11:16:13;;;;;;;4.25;1.80;;;31.20;6.70;;;;;;5025074;28;20194;-84
2022/07/13 11:18:41;;;;;;;7.05;1.85;;;31.20;10.90;;;;;;5021477;28;20662;-85
2022/07/13 11:21:10;;;;;;;4.00;1.92;;;31.00;7.30;;;;;;5020663;28;20214;-87
2022/07/13 11:26:51;;;;;;;2.25;1.50;;;31.30;7.60;;;;;;5023286;28;20744;-85
2022/07/13 11:29:31;;;;;;;3.35;1.67;;;31.20;8.90;;;;;;5031849;28;20209;-86
2022/07/13 11:31:59;;;;;;;1.92;1.73;;;31.20;6.90;;;;;;5030523;28;20230;-86
2022/07/13 11:34:27;;;;;;;4.38;1.60;;;31.00;7.70;;;;;;5026136;28;20544;-85
2022/07/13 11:36:55;;;;;;;2.38;1.70;;;31.10;6.60;;;;;;5031412;28;20213;-84
2022/07/13 11:39:23;;;;;;;2.55;1.83;;;31.10;7.60;;;;;;5026938;28;20649;-86
2022/07/13 11:41:53;;;;;;;3.83;1.90;;;30.80;7.40;;;;;;5029137;28;20202;-87
2022/07/13 11:44:22;;;;;;;2.17;1.60;;;30.80;7.40;;;;;;5026922;28;20681;-85
2022/07/13 11:46:49;;;;;;;7.93;2.13;;;30.80;8.10;;;;;;5022068;28;20202;-88
2022/07/13 11:49:16;;;;;;;8.07;1.85;;;30.60;8.60;;;;;;5022086;28;20308;-86
2022/07/13 11:51:43;;;;;;;2.40;1.52;;;30.50;7.90;;;;;;5029645;28;20226;-84
2022/07/13 11:54:11;;;;;;;5.18;1.77;;;30.50;8.60;;;;;;5029024;28;20202;-85
2022/07/13 11:56:47;;;;;;;2.20;1.67;;;30.60;9.80;;;;;;5020661;28;20657;-85
2022/07/13 11:59:16;;;;;;;5.00;1.80;;;30.50;9.30;;;;;;5025904;28;20206;-88
2022/07/13 12:01:50;;;;;;;5.85;2.22;;;30.50;7.30;;;;;;5026457;28;20289;-88
2022/07/13 12:04:25;;;;;;;3.33;1.52;;;30.70;8.30;;;;;;5028963;28;20216;-87
2022/07/13 12:07:10;;;;;;;3.13;2.05;;;30.80;7.50;;;;;;5024857;28;20213;-88
2022/07/13 12:09:38;;;;;;;4.68;1.60;;;30.40;8.90;;;;;;5029781;28;20206;-88
2022/07/13 12:12:18;;;;;;;3.47;1.25;;;30.20;8.00;;;;;;5024066;28;20264;-86
2022/07/13 12:14:47;;;;;;;1.45;1.33;;;30.60;9.60;;;;;;5025814;28;20202;-86
2022/07/13 12:17:16;;;;;;;4.70;1.52;;;30.80;7.60;;;;;;5015757;28;20495;-86
2022/07/13 12:19:43;;;;;;;2.50;1.35;;;31.10;10.50;;;;;;5025279;28;20237;-88
2022/07/13 12:22:10;;;;;;;4.10;1.60;;;31.20;7.60;;;;;;5030497;28;20241;-88
2022/07/13 12:24:43;;;;;;;3.05;1.85;;;30.80;7.50;;;;;;5023133;28;20209;-87
2022/07/13 12:27:20;;;;;;;8.63;1.58;;;30.30;7.20;;;;;;5023500;28;20206;-89
2022/07/13 12:29:49;;;;;;;2.15;1.60;;;30.10;8.40;;;;;;5027100;28;20197;-88
2022/07/13 12:32:15;;;;;;;3.22;1.77;;;30.10;10.30;;;;;;5027072;28;20701;-87
2022/07/13 12:34:51;;;;;;;2.72;1.45;;;30.10;8.80;;;;;;5020056;28;20203;-88
2022/07/13 12:37:33;;;;;;;4.03;1.60;;;29.80;8.50;;;;;;5028302;28;20244;-88
2022/07/13 12:40:00;;;;;;;3.15;1.40;;;30.00;9.20;;;;;;5023706;28;20282;-89
2022/07/13 12:42:27;;;;;;;1.67;1.30;;;30.10;8.10;;;;;;5021636;28;20225;-88
2022/07/13 12:44:55;;;;;;;1.92;1.58;;;30.30;10.30;;;;;;5027806;28;20290;-88
2022/07/13 12:47:24;;;;;;;3.35;1.63;;;30.40;7.60;;;;;;5028595;28;20205;-87
2022/07/13 12:49:52;;;;;;;2.30;1.40;;;30.50;8.30;;;;;;5025689;28;20241;-87
2022/07/13 12:52:20;;;;;;;5.50;1.35;;;30.00;7.70;;;;;;5024140;28;20218;-88
2022/07/13 12:54:49;;;;;;;3.30;1.52;;;29.80;8.20;;;;;;5020044;28;20202;-87
2022/07/13 12:57:18;;;;;;;3.78;1.50;;;29.60;8.90;;;;;;5023689;28;20650;-89
2022/07/13 13:00:00;;;;;;;1.35;1.25;;;29.60;9.80;;;;;;5027480;28;20205;-90
2022/07/13 13:02:29;;;;;;;2.90;1.50;;;29.80;10.70;;;;;;5045911;28;20186;-89
2022/07/13 13:04:57;;;;;;;3.05;1.50;;;30.00;9.70;;;;;;5045019;28;20202;-89
2022/07/13 13:07:24;;;;;;;1.70;1.40;;;30.40;7.40;;;;;;5044284;28;20198;-89
2022/07/13 13:09:50;;;;;;;3.60;1.48;;;30.40;7.80;;;;;;5030905;28;21049;-88
2022/07/13 13:12:17;;;;;;;1.20;1.20;;;30.30;7.80;;;;;;5020911;28;20584;-89
2022/07/13 13:14:45;;;;;;;1.35;1.25;;;30.50;8.20;;;;;;5028487;28;20289;-88
2022/07/13 13:17:13;;;;;;;5.90;1.63;;;30.70;7.40;;;;;;5028058;28;20651;-88